Kortemark, Belgium
Current Conditions -  °F | °C
As of 7:50 PM on Sunday 23 Nov 2014 (Local Time) from EBOS Reporting Station
Light Rain Light Rain  
Wind Chill: 50°   Ceiling: 600
Heat Index: 50°   Visibility: 3mi
Dew Point: 50°   Wind: 15mph
Humidity: 100%   Direction: 360°N
Pressure: 29.97"   Gusts: NA
Location:  51.03°N, 3.04°E
Report Text: EBOS 231850Z 36013KT 5000 -RADZ BKN006 10/10 Q1015 TEMPO 3500 DZRA
Loading
Personal Weather Stations






























Interactive Weather Map New forecast layout! Learn more

10-Day Weather Forecast

Advertisements
Track Severe Weather on mobile